Yakima — WCD7863 — position and weather

sailwx.info

Track history (hours):
 
Tides and Currents Weather Stations Pressure Air Temp Water Temp Dewpoint Dewpoint Depression Visibility Wind Speed Wind Dir Waves Ship Positions

Yakima

Owner: WASHINGTON, STATE OF; Dept. of Transportation, OLYMPIA, WA. More information available from US FCC via Universal Licensing System and Coast Guard Vessel Documentation Center.

Last reported at 2018-Apr-24 10:31 UTC. Time now 2018-Apr-24 10:47 UTC.
Position N 47°37' W 122°31'.

Length 117 m; draft 5.6 m.

Type: Passenger vessel. MMSI: 366772750.

Date/timePositionNaut miles runAvg speedWind from/ knotsBaromVisibWave heightAir tempDewpointWater temp
2018-Apr-24 10:31N 47°37' W 122°31'0 0.0
2018-Apr-24 10:01N 47°37' W 122°31'0 0.0
2018-Apr-24 09:30N 47°37' W 122°31'0 0.0
2018-Apr-24 09:00N 47°37' W 122°31'0 0.0
2018-Apr-24 08:30N 47°37' W 122°31'0 0.0
2018-Apr-24 08:00N 47°37' W 122°31'0 0.0
2018-Apr-24 07:30N 47°37' W 122°31'0 0.0
2018-Apr-24 07:00N 47°37' W 122°31'0 0.0
2018-Apr-24 06:30N 47°37' W 122°31'0 0.0
2018-Apr-24 06:01N 47°37' W 122°31'0 0.0
2018-Apr-24 05:30N 47°37' W 122°31'0 0.0
2018-Apr-24 05:00N 47°37' W 122°31'0 0.0
2018-Apr-24 04:30N 47°37' W 122°31'0 0.0
2018-Apr-24 04:00N 47°37' W 122°31'0 0.0
2018-Apr-24 03:30N 47°37' W 122°31'0 0.0
2018-Apr-24 03:00N 47°37' W 122°31'0 0.0
2018-Apr-24 02:30N 47°37' W 122°31'0 0.0
2018-Apr-24 02:00N 47°37' W 122°31'0 0.0
2018-Apr-24 01:30N 47°37' W 122°31'0 0.0
2018-Apr-24 01:00N 47°37' W 122°31'0 0.0
2018-Apr-24 00:30N 47°37' W 122°31'0 0.0
2018-Apr-24 00:00N 47°37' W 122°31'0 0.0
2018-Apr-23 23:30N 47°37' W 122°31'0 0.0
2018-Apr-23 23:00N 47°37' W 122°31'0 0.0
2018-Apr-23 22:30N 47°37' W 122°31'0 0.0
2018-Apr-23 22:00N 47°37' W 122°31'0 0.0
2018-Apr-23 21:30N 47°37' W 122°31'0 0.0
2018-Apr-23 21:00N 47°37' W 122°31'0 0.0
2018-Apr-23 20:30N 47°37' W 122°31'0 0.0
2018-Apr-23 20:00N 47°37' W 122°31'0 0.0
2018-Apr-23 19:29N 47°37' W 122°31'0 0.5
2018-Apr-23 19:00N 47°37' W 122°31'2 3.5
2018-Apr-23 18:30N 47°37' W 122°28'713.3
2018-Apr-23 18:00N 47°44' W 122°28'715.0
2018-Apr-23 17:31N 47°51' W 122°28'3014.2
2018-Apr-23 15:23N 48°19' W 122°46'615.0
2018-Apr-23 15:00N 48°25' W 122°44'612.9
2018-Apr-23 14:30N 48°31' W 122°41'0 0.0
2018-Apr-23 00:25N 48°30' W 122°40'0 0.0
2018-Apr-22 21:50N 48°30' W 122°40'0 1.0
2018-Apr-22 21:29N 48°31' W 122°40'0 0.1
2018-Apr-22 18:21N 48°30' W 122°41'0 0.0
2018-Apr-22 17:52N 48°30' W 122°41'0 0.1
2018-Apr-22 17:20N 48°30' W 122°41'3 8.7
2018-Apr-22 17:00N 48°32' W 122°45'612.2
2018-Apr-22 16:30N 48°34' W 122°53'2 4.2
2018-Apr-22 16:00N 48°35' W 122°56'1 1.8
2018-Apr-22 15:30N 48°36' W 122°57'510.4
2018-Apr-22 15:00N 48°33' W 122°50'713.2
2018-Apr-22 14:30N 48°30' W 122°41'2 4.8
2018-Apr-22 14:01N 48°31' W 122°44'713.2
2018-Apr-22 13:31N 48°34' W 122°53'3 5.7
2018-Apr-22 13:00N 48°33' W 122°56'3 6.1
2018-Apr-22 12:30N 48°32' W 123°01'5 9.3
2018-Apr-22 12:00N 48°34' W 122°54'612.8
2018-Apr-22 11:30N 48°31' W 122°45'3 2.6
2018-Apr-22 10:14N 48°30' W 122°41'0 0.0
2018-Apr-22 10:00N 48°30' W 122°41'0 0.0
2018-Apr-22 09:30N 48°30' W 122°41'0 0.0
2018-Apr-22 09:00N 48°30' W 122°41'0 0.0
2018-Apr-22 08:29N 48°30' W 122°41'0 0.0
2018-Apr-22 07:52N 48°30' W 122°41'0 0.0
2018-Apr-22 07:10N 48°30' W 122°41'0 0.0
2018-Apr-22 06:18N 48°30' W 122°41'3 9.4
2018-Apr-22 06:00N 48°32' W 122°45'713.1
2018-Apr-22 05:30N 48°34' W 122°54'510.7
2018-Apr-22 05:00N 48°32' W 123°01'4 7.2
2018-Apr-22 04:30N 48°33' W 122°56'3 6.6
2018-Apr-22 04:01N 48°33' W 122°51'713.7
2018-Apr-22 03:30N 48°31' W 122°41'0 0.6
2018-Apr-22 02:54N 48°30' W 122°41'512.3
2018-Apr-22 02:30N 48°32' W 122°48'4 8.8
2018-Apr-22 02:00N 48°34' W 122°53'510.4
2018-Apr-22 01:30N 48°33' W 123°00'1 1.1
2018-Apr-22 01:01N 48°32' W 123°01'611.1
2018-Apr-22 00:31N 48°35' W 122°53'4 7.3
2018-Apr-22 00:00N 48°32' W 122°49'6 8.6
2018-Apr-21 23:20N 48°30' W 122°41'0 0.0
2018-Apr-21 22:59N 48°30' W 122°41'0 0.0
2018-Apr-21 22:30N 48°30' W 122°41'0 0.0
2018-Apr-21 22:00N 48°30' W 122°41'0 0.0
2018-Apr-21 21:29N 48°30' W 122°41'0 0.0
2018-Apr-21 20:59N 48°30' W 122°41'1 2.2
2018-Apr-21 20:30N 48°31' W 122°41'815.4
2018-Apr-21 20:00N 48°34' W 122°52'3 6.2
2018-Apr-21 19:29N 48°36' W 122°57'1 2.4
2018-Apr-21 19:01N 48°35' W 122°55'3 6.1
2018-Apr-21 18:30N 48°34' W 122°51'713.9
2018-Apr-21 18:00N 48°31' W 122°41'1 1.6
2018-Apr-21 17:28N 48°30' W 122°41'613.0
2018-Apr-21 17:00N 48°32' W 122°49'5 9.0
2018-Apr-21 16:30N 48°35' W 122°54'2 3.6
2018-Apr-21 16:00N 48°36' W 122°57'1 1.7
2018-Apr-21 15:30N 48°35' W 122°55'713.5
2018-Apr-21 15:00N 48°32' W 122°47'4 6.7
2018-Apr-21 14:22N 48°30' W 122°41'3 7.5
2018-Apr-21 14:00N 48°32' W 122°44'612.7
2018-Apr-21 13:30N 48°34' W 122°53'4 7.6
2018-Apr-21 13:00N 48°32' W 122°58'2 3.7
2018-Apr-21 12:30N 48°32' W 123°01'510.7
2018-Apr-21 12:00N 48°34' W 122°53'612.9
2018-Apr-21 11:30N 48°31' W 122°45'3 6.0
2018-Apr-21 11:01N 48°30' W 122°41'0 0.1
2018-Apr-21 10:28N 48°30' W 122°41'0 0.0
2018-Apr-21 10:00N 48°30' W 122°41'0 0.0
2018-Apr-21 09:27N 48°30' W 122°41'0 0.0
2018-Apr-21 08:57N 48°30' W 122°41'0 0.0
2018-Apr-21 08:13N 48°30' W 122°41'0 0.0
2018-Apr-21 07:55N 48°30' W 122°41'0 0.0
2018-Apr-21 07:27N 48°30' W 122°41'0 0.0
2018-Apr-21 06:59N 48°30' W 122°41'0 0.9
2018-Apr-21 06:30N 48°31' W 122°40'4 7.7
2018-Apr-21 06:01N 48°32' W 122°46'612.4
2018-Apr-21 05:30N 48°34' W 122°55'4 8.5
2018-Apr-21 04:59N 48°32' W 123°01'4 9.1
2018-Apr-21 04:31N 48°34' W 122°55'3 5.7
2018-Apr-21 04:00N 48°33' W 122°50'713.6
2018-Apr-21 03:30N 48°31' W 122°41'1 0.9
2018-Apr-21 02:54N 48°30' W 122°41'511.7
2018-Apr-21 02:30N 48°32' W 122°47'5 9.2
2018-Apr-21 02:00N 48°34' W 122°53'510.7
2018-Apr-21 01:31N 48°33' W 123°01'0 0.2
2018-Apr-21 01:00N 48°33' W 123°00'510.4
2018-Apr-21 00:30N 48°34' W 122°53'4 7.8
2018-Apr-21 00:01N 48°32' W 122°49'510.2
2018-Apr-20 23:28N 48°30' W 122°41'2 3.2
2018-Apr-20 23:00N 48°31' W 122°42'714.5
2018-Apr-20 22:30N 48°34' W 122°52'3 6.4
2018-Apr-20 22:00N 48°36' W 122°57'712.4
2018-Apr-20 21:29N 48°32' W 122°49'6 6.3
2018-Apr-20 20:35N 48°30' W 122°41'1 8.1
2018-Apr-20 20:30N 48°31' W 122°41'714.4
2018-Apr-20 20:00N 48°33' W 122°51'5 9.0
2018-Apr-20 19:30N 48°36' W 122°57'0 0.3
2018-Apr-20 19:00N 48°36' W 122°57'3 5.8
2018-Apr-20 18:30N 48°34' W 122°53'510.4
2018-Apr-20 18:00N 48°32' W 122°46'4 7.5
2018-Apr-20 17:30N 48°30' W 122°41'2 4.9
2018-Apr-20 17:00N 48°31' W 122°44'713.3
2018-Apr-20 16:31N 48°34' W 122°53'2 4.1
2018-Apr-20 16:00N 48°35' W 122°56'1 1.8
2018-Apr-20 15:30N 48°36' W 122°57'510.8
2018-Apr-20 15:01N 48°33' W 122°50'713.0
2018-Apr-20 14:30N 48°30' W 122°41'2 4.6
2018-Apr-20 14:00N 48°31' W 122°44'713.4
2018-Apr-20 13:31N 48°34' W 122°53'3 6.7
2018-Apr-20 13:00N 48°32' W 122°57'3 5.3
2018-Apr-20 12:30N 48°32' W 123°01'510.2
2018-Apr-20 12:00N 48°34' W 122°54'713.2
2018-Apr-20 11:30N 48°32' W 122°45'3 5.6
2018-Apr-20 10:59N 48°30' W 122°41'0 0.0
2018-Apr-20 10:23N 48°30' W 122°41'0 0.0
2018-Apr-20 08:31N 48°30' W 122°41'0 0.0
2018-Apr-20 08:20N 48°30' W 122°41'0 0.0
2018-Apr-20 08:00N 48°30' W 122°41'0 0.0
2018-Apr-20 07:31N 48°30' W 122°41'0 0.0
2018-Apr-20 07:00N 48°30' W 122°41'0 0.0
2018-Apr-20 06:23N 48°30' W 122°41'3 8.5
2018-Apr-20 06:00N 48°32' W 122°45'612.7
2018-Apr-20 05:30N 48°34' W 122°54'510.0
2018-Apr-20 05:00N 48°32' W 123°01'3 7.0
2018-Apr-20 04:30N 48°33' W 122°56'3 6.4
2018-Apr-20 04:00N 48°33' W 122°51'713.9
2018-Apr-20 03:30N 48°31' W 122°41'0 0.6
2018-Apr-20 03:00N 48°31' W 122°41'714.3
2018-Apr-20 02:30N 48°33' W 122°51'1 3.0
2018-Apr-20 02:00N 48°34' W 122°53'510.2
2018-Apr-20 01:30N 48°33' W 123°00'1 1.2
2018-Apr-20 01:00N 48°32' W 123°01'5 9.1
2018-Apr-20 00:30N 48°34' W 122°54'3 6.2
2018-Apr-20 00:00N 48°33' W 122°50'710.5
2018-Apr-19 23:22N 48°30' W 122°41'0 0.0
2018-Apr-19 22:11N 48°30' W 122°41'0 0.0
2018-Apr-19 21:41N 48°30' W 122°41'0 0.0
2018-Apr-19 21:18N 48°30' W 122°41'0 0.0
2018-Apr-19 20:59N 48°30' W 122°41'1 2.3
2018-Apr-19 20:30N 48°31' W 122°41'714.2
2018-Apr-19 20:00N 48°34' W 122°52'4 7.8
2018-Apr-19 19:30N 48°36' W 122°57'0 0.1
2018-Apr-19 18:59N 48°36' W 122°57'3 6.1
2018-Apr-19 18:31N 48°34' W 122°53'713.3
2018-Apr-19 18:00N 48°32' W 122°44'2 4.5
2018-Apr-19 17:30N 48°30' W 122°41'4 8.7
2018-Apr-19 17:00N 48°32' W 122°47'5 9.7
2018-Apr-19 16:30N 48°34' W 122°53'3 5.6
2018-Apr-19 16:00N 48°36' W 122°57'1 1.6
2018-Apr-19 15:30N 48°35' W 122°56'714.6
2018-Apr-19 15:00N 48°32' W 122°46'4 6.1
2018-Apr-19 14:23N 48°31' W 122°41'512.3
2018-Apr-19 14:01N 48°32' W 122°47'5 9.2
2018-Apr-19 13:30N 48°34' W 122°53'4 7.5
2018-Apr-19 13:00N 48°32' W 122°58'2 3.9
2018-Apr-19 12:30N 48°32' W 123°01'510.2
2018-Apr-19 12:00N 48°34' W 122°54'613.0
2018-Apr-19 11:30N 48°32' W 122°45'3 2.8
2018-Apr-19 10:27N 48°30' W 122°41'0 0.0
2018-Apr-19 09:59N 48°30' W 122°41'0 0.0
2018-Apr-19 09:20N 48°30' W 122°41'0 0.0
2018-Apr-19 09:00N 48°30' W 122°41'0 0.0
2018-Apr-19 08:29N 48°30' W 122°41'0 0.0
2018-Apr-19 07:54N 48°30' W 122°41'0 0.0
2018-Apr-19 07:28N 48°30' W 122°41'0 0.0
2018-Apr-19 07:00N 48°30' W 122°41'0 0.0
2018-Apr-19 06:14N 48°30' W 122°41'210.1
2018-Apr-19 06:01N 48°31' W 122°44'714.0
2018-Apr-19 05:30N 48°35' W 122°53'611.2
2018-Apr-19 05:00N 48°32' W 123°01'4 7.9
2018-Apr-19 04:31N 48°33' W 122°55'2 5.0
2018-Apr-19 04:00N 48°34' W 122°51'713.9
2018-Apr-19 03:30N 48°31' W 122°41'1 1.5
2018-Apr-19 02:58N 48°30' W 122°41'4 9.5
2018-Apr-19 02:30N 48°32' W 122°47'5 9.2
2018-Apr-19 02:00N 48°34' W 122°53'511.2
2018-Apr-19 01:30N 48°32' W 123°01'0 0.1
2018-Apr-19 01:01N 48°32' W 123°01'510.9
2018-Apr-19 00:31N 48°34' W 122°53'5 9.1
2018-Apr-19 00:00N 48°32' W 122°47'5 9.1
2018-Apr-18 23:31N 48°30' W 122°41'0 0.0
2018-Apr-18 21:19N 48°30' W 122°41'0 0.1
2018-Apr-18 20:45N 48°30' W 122°41'0 0.7
2018-Apr-18 20:30N 48°31' W 122°40'713.4
2018-Apr-18 20:00N 48°32' W 122°50'510.0
2018-Apr-18 19:30N 48°35' W 122°56'0 0.8
2018-Apr-18 18:59N 48°36' W 122°57'3 5.9
2018-Apr-18 18:30N 48°34' W 122°53'4 8.5
2018-Apr-18 18:00N 48°32' W 122°48'5 6.4
2018-Apr-18 17:14N 48°30' W 122°41'2 8.2
2018-Apr-18 17:01N 48°31' W 122°43'714.0
2018-Apr-18 16:30N 48°34' W 122°53'2 4.2
2018-Apr-18 16:00N 48°35' W 122°56'1 1.8
2018-Apr-18 15:30N 48°36' W 122°57'612.3
2018-Apr-18 15:00N 48°32' W 122°49'6 9.4
2018-Apr-18 14:22N 48°30' W 122°41'3 8.0
2018-Apr-18 14:00N 48°32' W 122°44'612.3
2018-Apr-18 13:30N 48°34' W 122°53'3 5.8
2018-Apr-18 13:00N 48°33' W 122°56'3 6.0
2018-Apr-18 12:30N 48°32' W 123°01'5 9.6
2018-Apr-18 12:01N 48°34' W 122°54'713.0
2018-Apr-18 11:30N 48°32' W 122°45'3 6.2
2018-Apr-18 11:00N 48°30' W 122°41'0 0.0
2018-Apr-18 10:30N 48°30' W 122°41'0 0.0
2018-Apr-18 10:00N 48°30' W 122°41'0 0.0
2018-Apr-18 09:30N 48°30' W 122°41'0 0.0
2018-Apr-18 06:32N 48°30' W 122°41'0 0.0
2018-Apr-18 06:28N 48°30' W 122°41'3 5.9
2018-Apr-18 06:01N 48°31' W 122°44'713.3
2018-Apr-18 05:31N 48°34' W 122°53'510.7
2018-Apr-18 05:00N 48°32' W 123°01'3 5.8
2018-Apr-18 04:30N 48°32' W 122°56'4 7.3
2018-Apr-18 04:00N 48°34' W 122°51'713.7
2018-Apr-18 03:30N 48°31' W 122°42'1 2.1
2018-Apr-18 03:00N 48°31' W 122°41'612.7
2018-Apr-18 02:30N 48°32' W 122°50'3 5.9
2018-Apr-18 02:00N 48°35' W 122°53'510.4
2018-Apr-18 01:30N 48°33' W 122°60'1 1.6
2018-Apr-18 01:00N 48°32' W 123°01'511.1
2018-Apr-18 00:31N 48°34' W 122°53'3 6.9
2018-Apr-18 00:00N 48°32' W 122°49'6 7.4
2018-Apr-17 23:12N 48°30' W 122°41'0 0.0
2018-Apr-17 23:01N 48°30' W 122°41'0 0.0
2018-Apr-17 22:23N 48°30' W 122°41'0 0.0
2018-Apr-17 22:00N 48°30' W 122°41'0 0.0
2018-Apr-17 21:29N 48°30' W 122°41'0 0.0
2018-Apr-17 20:58N 48°30' W 122°41'4 9.7
2018-Apr-17 20:31N 48°32' W 122°47'713.4
2018-Apr-17 20:00N 48°35' W 122°56'1 1.7
2018-Apr-17 19:30N 48°36' W 122°57'2 3.6
2018-Apr-17 19:00N 48°35' W 122°54'4 8.5
2018-Apr-17 18:30N 48°32' W 122°50'6 8.7
2018-Apr-17 17:48N 48°30' W 122°41'0 0.0
2018-Apr-17 17:31N 48°30' W 122°41'510.8
2018-Apr-17 17:00N 48°32' W 122°49'4 7.8
2018-Apr-17 16:30N 48°34' W 122°53'3 5.6
2018-Apr-17 15:59N 48°36' W 122°57'1 2.5
2018-Apr-17 15:30N 48°35' W 122°55'611.7
2018-Apr-17 15:01N 48°32' W 122°48'510.1
2018-Apr-17 14:30N 48°30' W 122°41'3 6.9
2018-Apr-17 14:01N 48°32' W 122°45'611.1
2018-Apr-17 13:30N 48°34' W 122°53'3 5.6
2018-Apr-17 13:00N 48°33' W 122°56'3 6.1
2018-Apr-17 12:30N 48°32' W 123°01'510.5
2018-Apr-17 12:00N 48°34' W 122°54'713.5
2018-Apr-17 11:30N 48°31' W 122°44'3 4.5
2018-Apr-17 10:55N 48°30' W 122°41'0 0.0
2018-Apr-17 10:30N 48°30' W 122°41'0 0.0
2018-Apr-17 10:00N 48°30' W 122°41'0 0.0
2018-Apr-17 09:29N 48°30' W 122°41'0 0.0
2018-Apr-17 08:59N 48°30' W 122°41'0 0.0
2018-Apr-17 08:29N 48°30' W 122°41'0 0.0
2018-Apr-17 06:52N 48°30' W 122°41'0 0.0
2018-Apr-17 06:29N 48°30' W 122°41'2 4.2
2018-Apr-17 06:00N 48°31' W 122°43'714.3
2018-Apr-17 05:31N 48°35' W 122°53'611.5
2018-Apr-17 05:01N 48°32' W 123°01'3 5.0
2018-Apr-17 04:31N 48°32' W 122°57'4 8.1
2018-Apr-17 04:01N 48°34' W 122°51'713.4
2018-Apr-17 03:30N 48°31' W 122°42'1 2.1
2018-Apr-17 03:00N 48°30' W 122°41'4 8.9
2018-Apr-17 02:30N 48°32' W 122°47'5 9.0
2018-Apr-17 01:59N 48°34' W 122°53'5 9.6
2018-Apr-17 01:30N 48°33' W 122°59'1 2.0
2018-Apr-17 01:00N 48°32' W 123°01'510.0
2018-Apr-17 00:30N 48°34' W 122°54'4 7.0
2018-Apr-17 00:00N 48°32' W 122°50'612.1
2018-Apr-16 23:30N 48°30' W 122°41'0 0.1
2018-Apr-16 23:00N 48°30' W 122°41'0 0.1
2018-Apr-16 22:30N 48°30' W 122°41'0 0.0
2018-Apr-16 21:58N 48°30' W 122°41'0 0.0
2018-Apr-16 21:30N 48°30' W 122°41'0 0.3
2018-Apr-16 21:00N 48°31' W 122°40'2 4.6
2018-Apr-16 20:30N 48°31' W 122°44'713.8
2018-Apr-16 20:00N 48°35' W 122°53'3 5.1
2018-Apr-16 19:29N 48°36' W 122°57'0 0.0
2018-Apr-16 19:00N 48°36' W 122°57'3 5.8
2018-Apr-16 18:30N 48°34' W 122°53'612.4
2018-Apr-16 18:00N 48°31' W 122°45'3 5.5
2018-Apr-16 17:29N 48°30' W 122°41'4 7.9
2018-Apr-16 17:00N 48°32' W 122°46'510.5
2018-Apr-16 16:30N 48°34' W 122°53'3 5.7
2018-Apr-16 16:01N 48°36' W 122°57'1 1.5
2018-Apr-16 15:30N 48°35' W 122°56'713.7
2018-Apr-16 15:01N 48°32' W 122°47'4 8.6
2018-Apr-16 14:30N 48°30' W 122°41'3 6.8
2018-Apr-16 14:00N 48°31' W 122°45'611.4
2018-Apr-16 13:30N 48°34' W 122°53'3 6.0
2018-Apr-16 13:01N 48°32' W 122°57'3 5.7
2018-Apr-16 12:31N 48°32' W 123°01'510.2
2018-Apr-16 12:00N 48°34' W 122°54'713.3
2018-Apr-16 11:31N 48°32' W 122°45'3 5.7
2018-Apr-16 11:00N 48°30' W 122°41'0 0.0
2018-Apr-16 10:25N 48°30' W 122°41'0 0.0
2018-Apr-16 10:00N 48°30' W 122°41'0 0.0
2018-Apr-16 09:30N 48°30' W 122°41'0 0.0
2018-Apr-16 09:00N 48°30' W 122°41'0 0.0
2018-Apr-16 08:30N 48°30' W 122°41'0 0.0
2018-Apr-16 06:25N 48°30' W 122°41'3 7.3
2018-Apr-16 06:00N 48°32' W 122°45'612.9
2018-Apr-16 05:30N 48°34' W 122°54'510.7
2018-Apr-16 05:01N 48°32' W 123°01'3 6.6
2018-Apr-16 04:30N 48°33' W 122°56'3 6.7
2018-Apr-16 04:00N 48°34' W 122°51'713.2
2018-Apr-16 03:30N 48°31' W 122°42'1 1.6
2018-Apr-16 02:54N 48°31' W 122°40'614.7
2018-Apr-16 02:31N 48°32' W 122°49'4 8.4
2018-Apr-16 02:00N 48°34' W 122°54'510.0
2018-Apr-16 01:31N 48°32' W 123°01'2 4.7
2018-Apr-16 01:00N 48°32' W 122°57'4 8.3
2018-Apr-16 00:30N 48°34' W 122°52'714.5
2018-Apr-16 00:00N 48°31' W 122°41'1 1.4
2018-Apr-15 23:22N 48°30' W 122°41'411.8
2018-Apr-15 23:01N 48°32' W 122°47'713.9
2018-Apr-15 22:30N 48°35' W 122°55'1 1.7
2018-Apr-15 22:00N 48°36' W 122°57'611.1
2018-Apr-15 21:30N 48°33' W 122°50'612.9
2018-Apr-15 21:00N 48°30' W 122°41'1 1.4
2018-Apr-15 20:30N 48°31' W 122°41'714.2
2018-Apr-15 20:00N 48°33' W 122°51'4 9.0
2018-Apr-15 19:31N 48°36' W 122°57'0 0.6
2018-Apr-15 19:01N 48°36' W 122°57'3 5.7
2018-Apr-15 18:30N 48°34' W 122°53'5 9.2
2018-Apr-15 18:00N 48°32' W 122°47'5 6.4
2018-Apr-15 17:18N 48°30' W 122°41'3 8.9
2018-Apr-15 17:00N 48°31' W 122°44'612.3
2018-Apr-15 16:29N 48°34' W 122°53'2 4.3
2018-Apr-15 16:00N 48°35' W 122°56'1 1.8
2018-Apr-15 15:30N 48°36' W 122°57'510.5
2018-Apr-15 15:00N 48°33' W 122°50'713.1
2018-Apr-15 14:30N 48°30' W 122°41'2 4.7
2018-Apr-15 14:00N 48°32' W 122°44'713.3
2018-Apr-15 13:30N 48°34' W 122°53'3 5.3
2018-Apr-15 13:00N 48°33' W 122°56'3 6.4
2018-Apr-15 12:30N 48°32' W 123°01'510.1
2018-Apr-15 12:00N 48°34' W 122°54'713.3
2018-Apr-15 11:30N 48°32' W 122°44'3 5.3
2018-Apr-15 10:58N 48°30' W 122°41'0 0.0
2018-Apr-15 10:30N 48°30' W 122°41'0 0.0
2018-Apr-15 10:00N 48°30' W 122°41'0 0.0
2018-Apr-15 09:30N 48°30' W 122°41'0 0.0
2018-Apr-15 09:00N 48°30' W 122°41'0 0.0
2018-Apr-15 08:30N 48°30' W 122°41'0 0.0
2018-Apr-15 08:00N 48°30' W 122°41'0 0.0
2018-Apr-15 07:28N 48°30' W 122°41'0 0.0
2018-Apr-15 06:44N 48°30' W 122°41'0 0.0
2018-Apr-15 06:25N 48°30' W 122°41'2 6.0
2018-Apr-15 06:01N 48°31' W 122°44'713.8
2018-Apr-15 05:31N 48°35' W 122°53'611.2
2018-Apr-15 05:00N 48°32' W 123°01'3 6.0
2018-Apr-15 04:31N 48°33' W 122°56'4 7.0
2018-Apr-15 04:00N 48°34' W 122°52'713.9
2018-Apr-15 03:30N 48°31' W 122°42'1 2.1
2018-Apr-15 02:59N 48°30' W 122°41'4 9.4
2018-Apr-15 02:31N 48°32' W 122°47'5 9.1
2018-Apr-15 02:00N 48°34' W 122°53'5 9.7
2018-Apr-15 01:30N 48°33' W 122°60'1 1.8
2018-Apr-15 01:00N 48°32' W 123°01'4 8.3
2018-Apr-15 00:31N 48°33' W 122°55'3 6.5
2018-Apr-15 00:00N 48°33' W 122°50'713.2
2018-Apr-14 23:30N 48°31' W 122°41'0 0.1
2018-Apr-14 22:55N 48°30' W 122°41'0 0.0
2018-Apr-14 22:30N 48°30' W 122°41'0 0.0
2018-Apr-14 22:00N 48°30' W 122°41'0 0.0
2018-Apr-14 21:29N 48°30' W 122°41'0 0.0
2018-Apr-14 21:00N 48°30' W 122°41'0 0.9
2018-Apr-14 20:30N 48°31' W 122°40'713.8
2018-Apr-14 20:00N 48°33' W 122°50'5 9.7
2018-Apr-14 19:31N 48°36' W 122°56'0 0.8
2018-Apr-14 19:00N 48°36' W 122°57'3 5.7
2018-Apr-14 18:30N 48°34' W 122°53'5 9.7
2018-Apr-14 18:00N 48°32' W 122°47'4 5.6
2018-Apr-14 17:15N 48°30' W 122°41'2 9.4
2018-Apr-14 17:00N 48°31' W 122°44'713.5
2018-Apr-14 16:30N 48°34' W 122°53'2 4.2
2018-Apr-14 16:00N 48°35' W 122°56'1 1.7
2018-Apr-14 15:30N 48°36' W 122°57'611.2
2018-Apr-14 15:00N 48°33' W 122°50'612.2
2018-Apr-14 14:29N 48°30' W 122°41'2 4.9
2018-Apr-14 14:01N 48°31' W 122°44'713.3
2018-Apr-14 13:30N 48°34' W 122°53'3 5.1
2018-Apr-14 13:00N 48°33' W 122°56'3 6.7
2018-Apr-14 12:31N 48°32' W 123°01'5 9.9
2018-Apr-14 12:00N 48°34' W 122°54'713.0
2018-Apr-14 11:30N 48°32' W 122°45'3 5.8
2018-Apr-14 10:59N 48°30' W 122°41'  
Track history (hours):
 
Tides and Currents Weather Stations Pressure Air Temp Water Temp Dewpoint Dewpoint Depression Visibility Wind Speed Wind Dir Waves Ship Positions

Yakima

Owner: WASHINGTON, STATE OF; Dept. of Transportation, OLYMPIA, WA. More information available from US FCC via Universal Licensing System and Coast Guard Vessel Documentation Center.

Last reported at 2018-Apr-24 10:31 UTC. Time now 2018-Apr-24 10:47 UTC.
Position N 47°37' W 122°31'.

Length 117 m; draft 5.6 m.

Type: Passenger vessel. MMSI: 366772750.

Date/timePositionNaut miles runAvg speedWind from/ knotsBaromVisibWave heightAir tempDewpointWater temp
2018-Apr-24 10:31N 47°37' W 122°31'0 0.0
2018-Apr-24 10:01N 47°37' W 122°31'0 0.0
2018-Apr-24 09:30N 47°37' W 122°31'0 0.0
2018-Apr-24 09:00N 47°37' W 122°31'0 0.0
2018-Apr-24 08:30N 47°37' W 122°31'0 0.0
2018-Apr-24 08:00N 47°37' W 122°31'0 0.0
2018-Apr-24 07:30N 47°37' W 122°31'0 0.0
2018-Apr-24 07:00N 47°37' W 122°31'0 0.0
2018-Apr-24 06:30N 47°37' W 122°31'0 0.0
2018-Apr-24 06:01N 47°37' W 122°31'0 0.0
2018-Apr-24 05:30N 47°37' W 122°31'0 0.0
2018-Apr-24 05:00N 47°37' W 122°31'0 0.0
2018-Apr-24 04:30N 47°37' W 122°31'0 0.0
2018-Apr-24 04:00N 47°37' W 122°31'0 0.0
2018-Apr-24 03:30N 47°37' W 122°31'0 0.0
2018-Apr-24 03:00N 47°37' W 122°31'0 0.0
2018-Apr-24 02:30N 47°37' W 122°31'0 0.0
2018-Apr-24 02:00N 47°37' W 122°31'0 0.0
2018-Apr-24 01:30N 47°37' W 122°31'0 0.0
2018-Apr-24 01:00N 47°37' W 122°31'0 0.0
2018-Apr-24 00:30N 47°37' W 122°31'0 0.0
2018-Apr-24 00:00N 47°37' W 122°31'0 0.0
2018-Apr-23 23:30N 47°37' W 122°31'0 0.0
2018-Apr-23 23:00N 47°37' W 122°31'0 0.0
2018-Apr-23 22:30N 47°37' W 122°31'0 0.0
2018-Apr-23 22:00N 47°37' W 122°31'0 0.0
2018-Apr-23 21:30N 47°37' W 122°31'0 0.0
2018-Apr-23 21:00N 47°37' W 122°31'0 0.0
2018-Apr-23 20:30N 47°37' W 122°31'0 0.0
2018-Apr-23 20:00N 47°37' W 122°31'0 0.0
2018-Apr-23 19:29N 47°37' W 122°31'0 0.5
2018-Apr-23 19:00N 47°37' W 122°31'2 3.5
2018-Apr-23 18:30N 47°37' W 122°28'713.3
2018-Apr-23 18:00N 47°44' W 122°28'715.0
2018-Apr-23 17:31N 47°51' W 122°28'3014.2
2018-Apr-23 15:23N 48°19' W 122°46'615.0
2018-Apr-23 15:00N 48°25' W 122°44'612.9
2018-Apr-23 14:30N 48°31' W 122°41'0 0.0
2018-Apr-23 00:25N 48°30' W 122°40'0 0.0
2018-Apr-22 21:50N 48°30' W 122°40'0 1.0
2018-Apr-22 21:29N 48°31' W 122°40'0 0.1
2018-Apr-22 18:21N 48°30' W 122°41'0 0.0
2018-Apr-22 17:52N 48°30' W 122°41'0 0.1
2018-Apr-22 17:20N 48°30' W 122°41'3 8.7
2018-Apr-22 17:00N 48°32' W 122°45'612.2
2018-Apr-22 16:30N 48°34' W 122°53'2 4.2
2018-Apr-22 16:00N 48°35' W 122°56'1 1.8
2018-Apr-22 15:30N 48°36' W 122°57'510.4
2018-Apr-22 15:00N 48°33' W 122°50'713.2
2018-Apr-22 14:30N 48°30' W 122°41'2 4.8
2018-Apr-22 14:01N 48°31' W 122°44'713.2
2018-Apr-22 13:31N 48°34' W 122°53'3 5.7
2018-Apr-22 13:00N 48°33' W 122°56'3 6.1
2018-Apr-22 12:30N 48°32' W 123°01'5 9.3
2018-Apr-22 12:00N 48°34' W 122°54'612.8
2018-Apr-22 11:30N 48°31' W 122°45'3 2.6
2018-Apr-22 10:14N 48°30' W 122°41'0 0.0
2018-Apr-22 10:00N 48°30' W 122°41'0 0.0
2018-Apr-22 09:30N 48°30' W 122°41'0 0.0
2018-Apr-22 09:00N 48°30' W 122°41'0 0.0
2018-Apr-22 08:29N 48°30' W 122°41'0 0.0
2018-Apr-22 07:52N 48°30' W 122°41'0 0.0
2018-Apr-22 07:10N 48°30' W 122°41'0 0.0
2018-Apr-22 06:18N 48°30' W 122°41'3 9.4
2018-Apr-22 06:00N 48°32' W 122°45'713.1
2018-Apr-22 05:30N 48°34' W 122°54'510.7
2018-Apr-22 05:00N 48°32' W 123°01'4 7.2
2018-Apr-22 04:30N 48°33' W 122°56'3 6.6
2018-Apr-22 04:01N 48°33' W 122°51'713.7
2018-Apr-22 03:30N 48°31' W 122°41'0 0.6
2018-Apr-22 02:54N 48°30' W 122°41'512.3
2018-Apr-22 02:30N 48°32' W 122°48'4 8.8
2018-Apr-22 02:00N 48°34' W 122°53'510.4
2018-Apr-22 01:30N 48°33' W 123°00'1 1.1
2018-Apr-22 01:01N 48°32' W 123°01'611.1
2018-Apr-22 00:31N 48°35' W 122°53'4 7.3
2018-Apr-22 00:00N 48°32' W 122°49'6 8.6
2018-Apr-21 23:20N 48°30' W 122°41'0 0.0
2018-Apr-21 22:59N 48°30' W 122°41'0 0.0
2018-Apr-21 22:30N 48°30' W 122°41'0 0.0
2018-Apr-21 22:00N 48°30' W 122°41'0 0.0
2018-Apr-21 21:29N 48°30' W 122°41'0 0.0
2018-Apr-21 20:59N 48°30' W 122°41'1 2.2
2018-Apr-21 20:30N 48°31' W 122°41'815.4
2018-Apr-21 20:00N 48°34' W 122°52'3 6.2
2018-Apr-21 19:29N 48°36' W 122°57'1 2.4
2018-Apr-21 19:01N 48°35' W 122°55'3 6.1
2018-Apr-21 18:30N 48°34' W 122°51'713.9
2018-Apr-21 18:00N 48°31' W 122°41'1 1.6
2018-Apr-21 17:28N 48°30' W 122°41'613.0
2018-Apr-21 17:00N 48°32' W 122°49'5 9.0
2018-Apr-21 16:30N 48°35' W 122°54'2 3.6
2018-Apr-21 16:00N 48°36' W 122°57'1 1.7
2018-Apr-21 15:30N 48°35' W 122°55'713.5
2018-Apr-21 15:00N 48°32' W 122°47'4 6.7
2018-Apr-21 14:22N 48°30' W 122°41'3 7.5
2018-Apr-21 14:00N 48°32' W 122°44'612.7
2018-Apr-21 13:30N 48°34' W 122°53'4 7.6
2018-Apr-21 13:00N 48°32' W 122°58'2 3.7
2018-Apr-21 12:30N 48°32' W 123°01'510.7
2018-Apr-21 12:00N 48°34' W 122°53'612.9
2018-Apr-21 11:30N 48°31' W 122°45'3 6.0
2018-Apr-21 11:01N 48°30' W 122°41'0 0.1
2018-Apr-21 10:28N 48°30' W 122°41'0 0.0
2018-Apr-21 10:00N 48°30' W 122°41'0 0.0
2018-Apr-21 09:27N 48°30' W 122°41'0 0.0
2018-Apr-21 08:57N 48°30' W 122°41'0 0.0
2018-Apr-21 08:13N 48°30' W 122°41'0 0.0
2018-Apr-21 07:55N 48°30' W 122°41'0 0.0
2018-Apr-21 07:27N 48°30' W 122°41'0 0.0
2018-Apr-21 06:59N 48°30' W 122°41'0 0.9
2018-Apr-21 06:30N 48°31' W 122°40'4 7.7
2018-Apr-21 06:01N 48°32' W 122°46'612.4
2018-Apr-21 05:30N 48°34' W 122°55'4 8.5
2018-Apr-21 04:59N 48°32' W 123°01'4 9.1
2018-Apr-21 04:31N 48°34' W 122°55'3 5.7
2018-Apr-21 04:00N 48°33' W 122°50'713.6
2018-Apr-21 03:30N 48°31' W 122°41'1 0.9
2018-Apr-21 02:54N 48°30' W 122°41'511.7
2018-Apr-21 02:30N 48°32' W 122°47'5 9.2
2018-Apr-21 02:00N 48°34' W 122°53'510.7
2018-Apr-21 01:31N 48°33' W 123°01'0 0.2
2018-Apr-21 01:00N 48°33' W 123°00'510.4
2018-Apr-21 00:30N 48°34' W 122°53'4 7.8
2018-Apr-21 00:01N 48°32' W 122°49'510.2
2018-Apr-20 23:28N 48°30' W 122°41'2 3.2
2018-Apr-20 23:00N 48°31' W 122°42'714.5
2018-Apr-20 22:30N 48°34' W 122°52'3 6.4
2018-Apr-20 22:00N 48°36' W 122°57'712.4
2018-Apr-20 21:29N 48°32' W 122°49'6 6.3
2018-Apr-20 20:35N 48°30' W 122°41'1 8.1
2018-Apr-20 20:30N 48°31' W 122°41'714.4
2018-Apr-20 20:00N 48°33' W 122°51'5 9.0
2018-Apr-20 19:30N 48°36' W 122°57'0 0.3
2018-Apr-20 19:00N 48°36' W 122°57'3 5.8
2018-Apr-20 18:30N 48°34' W 122°53'510.4
2018-Apr-20 18:00N 48°32' W 122°46'4 7.5
2018-Apr-20 17:30N 48°30' W 122°41'2 4.9
2018-Apr-20 17:00N 48°31' W 122°44'713.3
2018-Apr-20 16:31N 48°34' W 122°53'2 4.1
2018-Apr-20 16:00N 48°35' W 122°56'1 1.8
2018-Apr-20 15:30N 48°36' W 122°57'510.8
2018-Apr-20 15:01N 48°33' W 122°50'713.0
2018-Apr-20 14:30N 48°30' W 122°41'2 4.6
2018-Apr-20 14:00N 48°31' W 122°44'713.4
2018-Apr-20 13:31N 48°34' W 122°53'3 6.7
2018-Apr-20 13:00N 48°32' W 122°57'3 5.3
2018-Apr-20 12:30N 48°32' W 123°01'510.2
2018-Apr-20 12:00N 48°34' W 122°54'713.2
2018-Apr-20 11:30N 48°32' W 122°45'3 5.6
2018-Apr-20 10:59N 48°30' W 122°41'0 0.0
2018-Apr-20 10:23N 48°30' W 122°41'0 0.0
2018-Apr-20 08:31N 48°30' W 122°41'0 0.0
2018-Apr-20 08:20N 48°30' W 122°41'0 0.0
2018-Apr-20 08:00N 48°30' W 122°41'0 0.0
2018-Apr-20 07:31N 48°30' W 122°41'0 0.0
2018-Apr-20 07:00N 48°30' W 122°41'0 0.0
2018-Apr-20 06:23N 48°30' W 122°41'3 8.5
2018-Apr-20 06:00N 48°32' W 122°45'612.7
2018-Apr-20 05:30N 48°34' W 122°54'510.0
2018-Apr-20 05:00N 48°32' W 123°01'3 7.0
2018-Apr-20 04:30N 48°33' W 122°56'3 6.4
2018-Apr-20 04:00N 48°33' W 122°51'713.9
2018-Apr-20 03:30N 48°31' W 122°41'0 0.6
2018-Apr-20 03:00N 48°31' W 122°41'714.3
2018-Apr-20 02:30N 48°33' W 122°51'1 3.0
2018-Apr-20 02:00N 48°34' W 122°53'510.2
2018-Apr-20 01:30N 48°33' W 123°00'1 1.2
2018-Apr-20 01:00N 48°32' W 123°01'5 9.1
2018-Apr-20 00:30N 48°34' W 122°54'3 6.2
2018-Apr-20 00:00N 48°33' W 122°50'710.5
2018-Apr-19 23:22N 48°30' W 122°41'0 0.0
2018-Apr-19 22:11N 48°30' W 122°41'0 0.0
2018-Apr-19 21:41N 48°30' W 122°41'0 0.0
2018-Apr-19 21:18N 48°30' W 122°41'0 0.0
2018-Apr-19 20:59N 48°30' W 122°41'1 2.3
2018-Apr-19 20:30N 48°31' W 122°41'714.2
2018-Apr-19 20:00N 48°34' W 122°52'4 7.8
2018-Apr-19 19:30N 48°36' W 122°57'0 0.1
2018-Apr-19 18:59N 48°36' W 122°57'3 6.1
2018-Apr-19 18:31N 48°34' W 122°53'713.3
2018-Apr-19 18:00N 48°32' W 122°44'2 4.5
2018-Apr-19 17:30N 48°30' W 122°41'4 8.7
2018-Apr-19 17:00N 48°32' W 122°47'5 9.7
2018-Apr-19 16:30N 48°34' W 122°53'3 5.6
2018-Apr-19 16:00N 48°36' W 122°57'1 1.6
2018-Apr-19 15:30N 48°35' W 122°56'714.6
2018-Apr-19 15:00N 48°32' W 122°46'4 6.1
2018-Apr-19 14:23N 48°31' W 122°41'512.3
2018-Apr-19 14:01N 48°32' W 122°47'5 9.2
2018-Apr-19 13:30N 48°34' W 122°53'4 7.5
2018-Apr-19 13:00N 48°32' W 122°58'2 3.9
2018-Apr-19 12:30N 48°32' W 123°01'510.2
2018-Apr-19 12:00N 48°34' W 122°54'613.0
2018-Apr-19 11:30N 48°32' W 122°45'3 2.8
2018-Apr-19 10:27N 48°30' W 122°41'0 0.0
2018-Apr-19 09:59N 48°30' W 122°41'0 0.0
2018-Apr-19 09:20N 48°30' W 122°41'0 0.0
2018-Apr-19 09:00N 48°30' W 122°41'0 0.0
2018-Apr-19 08:29N 48°30' W 122°41'0 0.0
2018-Apr-19 07:54N 48°30' W 122°41'0 0.0
2018-Apr-19 07:28N 48°30' W 122°41'0 0.0
2018-Apr-19 07:00N 48°30' W 122°41'0 0.0
2018-Apr-19 06:14N 48°30' W 122°41'210.1
2018-Apr-19 06:01N 48°31' W 122°44'714.0
2018-Apr-19 05:30N 48°35' W 122°53'611.2
2018-Apr-19 05:00N 48°32' W 123°01'4 7.9
2018-Apr-19 04:31N 48°33' W 122°55'2 5.0
2018-Apr-19 04:00N 48°34' W 122°51'713.9
2018-Apr-19 03:30N 48°31' W 122°41'1 1.5
2018-Apr-19 02:58N 48°30' W 122°41'4 9.5
2018-Apr-19 02:30N 48°32' W 122°47'5 9.2
2018-Apr-19 02:00N 48°34' W 122°53'511.2
2018-Apr-19 01:30N 48°32' W 123°01'0 0.1
2018-Apr-19 01:01N 48°32' W 123°01'510.9
2018-Apr-19 00:31N 48°34' W 122°53'5 9.1
2018-Apr-19 00:00N 48°32' W 122°47'5 9.1
2018-Apr-18 23:31N 48°30' W 122°41'0 0.0
2018-Apr-18 21:19N 48°30' W 122°41'0 0.1
2018-Apr-18 20:45N 48°30' W 122°41'0 0.7
2018-Apr-18 20:30N 48°31' W 122°40'713.4
2018-Apr-18 20:00N 48°32' W 122°50'510.0
2018-Apr-18 19:30N 48°35' W 122°56'0 0.8
2018-Apr-18 18:59N 48°36' W 122°57'3 5.9
2018-Apr-18 18:30N 48°34' W 122°53'4 8.5
2018-Apr-18 18:00N 48°32' W 122°48'5 6.4
2018-Apr-18 17:14N 48°30' W 122°41'2 8.2
2018-Apr-18 17:01N 48°31' W 122°43'714.0
2018-Apr-18 16:30N 48°34' W 122°53'2 4.2
2018-Apr-18 16:00N 48°35' W 122°56'1 1.8
2018-Apr-18 15:30N 48°36' W 122°57'612.3
2018-Apr-18 15:00N 48°32' W 122°49'6 9.4
2018-Apr-18 14:22N 48°30' W 122°41'3 8.0
2018-Apr-18 14:00N 48°32' W 122°44'612.3
2018-Apr-18 13:30N 48°34' W 122°53'3 5.8
2018-Apr-18 13:00N 48°33' W 122°56'3 6.0
2018-Apr-18 12:30N 48°32' W 123°01'5 9.6
2018-Apr-18 12:01N 48°34' W 122°54'713.0
2018-Apr-18 11:30N 48°32' W 122°45'3 6.2
2018-Apr-18 11:00N 48°30' W 122°41'0 0.0
2018-Apr-18 10:30N 48°30' W 122°41'0 0.0
2018-Apr-18 10:00N 48°30' W 122°41'0 0.0
2018-Apr-18 09:30N 48°30' W 122°41'0 0.0
2018-Apr-18 06:32N 48°30' W 122°41'0 0.0
2018-Apr-18 06:28N 48°30' W 122°41'3 5.9
2018-Apr-18 06:01N 48°31' W 122°44'713.3
2018-Apr-18 05:31N 48°34' W 122°53'510.7
2018-Apr-18 05:00N 48°32' W 123°01'3 5.8
2018-Apr-18 04:30N 48°32' W 122°56'4 7.3
2018-Apr-18 04:00N 48°34' W 122°51'713.7
2018-Apr-18 03:30N 48°31' W 122°42'1 2.1
2018-Apr-18 03:00N 48°31' W 122°41'612.7
2018-Apr-18 02:30N 48°32' W 122°50'3 5.9
2018-Apr-18 02:00N 48°35' W 122°53'510.4
2018-Apr-18 01:30N 48°33' W 122°60'1 1.6
2018-Apr-18 01:00N 48°32' W 123°01'511.1
2018-Apr-18 00:31N 48°34' W 122°53'3 6.9
2018-Apr-18 00:00N 48°32' W 122°49'6 7.4
2018-Apr-17 23:12N 48°30' W 122°41'0 0.0
2018-Apr-17 23:01N 48°30' W 122°41'0 0.0
2018-Apr-17 22:23N 48°30' W 122°41'0 0.0
2018-Apr-17 22:00N 48°30' W 122°41'0 0.0
2018-Apr-17 21:29N 48°30' W 122°41'0 0.0
2018-Apr-17 20:58N 48°30' W 122°41'4 9.7
2018-Apr-17 20:31N 48°32' W 122°47'713.4
2018-Apr-17 20:00N 48°35' W 122°56'1 1.7
2018-Apr-17 19:30N 48°36' W 122°57'2 3.6
2018-Apr-17 19:00N 48°35' W 122°54'4 8.5
2018-Apr-17 18:30N 48°32' W 122°50'6 8.7
2018-Apr-17 17:48N 48°30' W 122°41'0 0.0
2018-Apr-17 17:31N 48°30' W 122°41'510.8
2018-Apr-17 17:00N 48°32' W 122°49'4 7.8
2018-Apr-17 16:30N 48°34' W 122°53'3 5.6
2018-Apr-17 15:59N 48°36' W 122°57'1 2.5
2018-Apr-17 15:30N 48°35' W 122°55'611.7
2018-Apr-17 15:01N 48°32' W 122°48'510.1
2018-Apr-17 14:30N 48°30' W 122°41'3 6.9
2018-Apr-17 14:01N 48°32' W 122°45'611.1
2018-Apr-17 13:30N 48°34' W 122°53'3 5.6
2018-Apr-17 13:00N 48°33' W 122°56'3 6.1
2018-Apr-17 12:30N 48°32' W 123°01'510.5
2018-Apr-17 12:00N 48°34' W 122°54'713.5
2018-Apr-17 11:30N 48°31' W 122°44'3 4.5
2018-Apr-17 10:55N 48°30' W 122°41'0 0.0
2018-Apr-17 10:30N 48°30' W 122°41'0 0.0
2018-Apr-17 10:00N 48°30' W 122°41'0 0.0
2018-Apr-17 09:29N 48°30' W 122°41'0 0.0
2018-Apr-17 08:59N 48°30' W 122°41'0 0.0
2018-Apr-17 08:29N 48°30' W 122°41'0 0.0
2018-Apr-17 06:52N 48°30' W 122°41'0 0.0
2018-Apr-17 06:29N 48°30' W 122°41'2 4.2
2018-Apr-17 06:00N 48°31' W 122°43'714.3
2018-Apr-17 05:31N 48°35' W 122°53'611.5
2018-Apr-17 05:01N 48°32' W 123°01'3 5.0
2018-Apr-17 04:31N 48°32' W 122°57'4 8.1
2018-Apr-17 04:01N 48°34' W 122°51'713.4
2018-Apr-17 03:30N 48°31' W 122°42'1 2.1
2018-Apr-17 03:00N 48°30' W 122°41'4 8.9
2018-Apr-17 02:30N 48°32' W 122°47'5 9.0
2018-Apr-17 01:59N 48°34' W 122°53'5 9.6
2018-Apr-17 01:30N 48°33' W 122°59'1 2.0
2018-Apr-17 01:00N 48°32' W 123°01'510.0
2018-Apr-17 00:30N 48°34' W 122°54'4 7.0
2018-Apr-17 00:00N 48°32' W 122°50'612.1
2018-Apr-16 23:30N 48°30' W 122°41'0 0.1
2018-Apr-16 23:00N 48°30' W 122°41'0 0.1
2018-Apr-16 22:30N 48°30' W 122°41'0 0.0
2018-Apr-16 21:58N 48°30' W 122°41'0 0.0
2018-Apr-16 21:30N 48°30' W 122°41'0 0.3
2018-Apr-16 21:00N 48°31' W 122°40'2 4.6
2018-Apr-16 20:30N 48°31' W 122°44'713.8
2018-Apr-16 20:00N 48°35' W 122°53'3 5.1
2018-Apr-16 19:29N 48°36' W 122°57'0 0.0
2018-Apr-16 19:00N 48°36' W 122°57'3 5.8
2018-Apr-16 18:30N 48°34' W 122°53'612.4
2018-Apr-16 18:00N 48°31' W 122°45'3 5.5
2018-Apr-16 17:29N 48°30' W 122°41'4 7.9
2018-Apr-16 17:00N 48°32' W 122°46'510.5
2018-Apr-16 16:30N 48°34' W 122°53'3 5.7
2018-Apr-16 16:01N 48°36' W 122°57'1 1.5
2018-Apr-16 15:30N 48°35' W 122°56'713.7
2018-Apr-16 15:01N 48°32' W 122°47'4 8.6
2018-Apr-16 14:30N 48°30' W 122°41'3 6.8
2018-Apr-16 14:00N 48°31' W 122°45'611.4
2018-Apr-16 13:30N 48°34' W 122°53'3 6.0
2018-Apr-16 13:01N 48°32' W 122°57'3 5.7
2018-Apr-16 12:31N 48°32' W 123°01'510.2
2018-Apr-16 12:00N 48°34' W 122°54'713.3
2018-Apr-16 11:31N 48°32' W 122°45'3 5.7
2018-Apr-16 11:00N 48°30' W 122°41'0 0.0
2018-Apr-16 10:25N 48°30' W 122°41'0 0.0
2018-Apr-16 10:00N 48°30' W 122°41'0 0.0
2018-Apr-16 09:30N 48°30' W 122°41'0 0.0
2018-Apr-16 09:00N 48°30' W 122°41'0 0.0
2018-Apr-16 08:30N 48°30' W 122°41'0 0.0
2018-Apr-16 06:25N 48°30' W 122°41'3 7.3
2018-Apr-16 06:00N 48°32' W 122°45'612.9
2018-Apr-16 05:30N 48°34' W 122°54'510.7
2018-Apr-16 05:01N 48°32' W 123°01'3 6.6
2018-Apr-16 04:30N 48°33' W 122°56'3 6.7
2018-Apr-16 04:00N 48°34' W 122°51'713.2
2018-Apr-16 03:30N 48°31' W 122°42'1 1.6
2018-Apr-16 02:54N 48°31' W 122°40'614.7
2018-Apr-16 02:31N 48°32' W 122°49'4 8.4
2018-Apr-16 02:00N 48°34' W 122°54'510.0
2018-Apr-16 01:31N 48°32' W 123°01'2 4.7
2018-Apr-16 01:00N 48°32' W 122°57'4 8.3
2018-Apr-16 00:30N 48°34' W 122°52'714.5
2018-Apr-16 00:00N 48°31' W 122°41'1 1.4
2018-Apr-15 23:22N 48°30' W 122°41'411.8
2018-Apr-15 23:01N 48°32' W 122°47'713.9
2018-Apr-15 22:30N 48°35' W 122°55'1 1.7
2018-Apr-15 22:00N 48°36' W 122°57'611.1
2018-Apr-15 21:30N 48°33' W 122°50'612.9
2018-Apr-15 21:00N 48°30' W 122°41'1 1.4
2018-Apr-15 20:30N 48°31' W 122°41'714.2
2018-Apr-15 20:00N 48°33' W 122°51'4 9.0
2018-Apr-15 19:31N 48°36' W 122°57'0 0.6
2018-Apr-15 19:01N 48°36' W 122°57'3 5.7
2018-Apr-15 18:30N 48°34' W 122°53'5 9.2
2018-Apr-15 18:00N 48°32' W 122°47'5 6.4
2018-Apr-15 17:18N 48°30' W 122°41'3 8.9
2018-Apr-15 17:00N 48°31' W 122°44'612.3
2018-Apr-15 16:29N 48°34' W 122°53'2 4.3
2018-Apr-15 16:00N 48°35' W 122°56'1 1.8
2018-Apr-15 15:30N 48°36' W 122°57'510.5
2018-Apr-15 15:00N 48°33' W 122°50'713.1
2018-Apr-15 14:30N 48°30' W 122°41'2 4.7
2018-Apr-15 14:00N 48°32' W 122°44'713.3
2018-Apr-15 13:30N 48°34' W 122°53'3 5.3
2018-Apr-15 13:00N 48°33' W 122°56'3 6.4
2018-Apr-15 12:30N 48°32' W 123°01'510.1
2018-Apr-15 12:00N 48°34' W 122°54'713.3
2018-Apr-15 11:30N 48°32' W 122°44'3 5.3
2018-Apr-15 10:58N 48°30' W 122°41'0 0.0
2018-Apr-15 10:30N 48°30' W 122°41'0 0.0
2018-Apr-15 10:00N 48°30' W 122°41'0 0.0
2018-Apr-15 09:30N 48°30' W 122°41'0 0.0
2018-Apr-15 09:00N 48°30' W 122°41'0 0.0
2018-Apr-15 08:30N 48°30' W 122°41'0 0.0
2018-Apr-15 08:00N 48°30' W 122°41'0 0.0
2018-Apr-15 07:28N 48°30' W 122°41'0 0.0
2018-Apr-15 06:44N 48°30' W 122°41'0 0.0
2018-Apr-15 06:25N 48°30' W 122°41'2 6.0
2018-Apr-15 06:01N 48°31' W 122°44'713.8
2018-Apr-15 05:31N 48°35' W 122°53'611.2
2018-Apr-15 05:00N 48°32' W 123°01'3 6.0
2018-Apr-15 04:31N 48°33' W 122°56'4 7.0
2018-Apr-15 04:00N 48°34' W 122°52'713.9
2018-Apr-15 03:30N 48°31' W 122°42'1 2.1
2018-Apr-15 02:59N 48°30' W 122°41'4 9.4
2018-Apr-15 02:31N 48°32' W 122°47'5 9.1
2018-Apr-15 02:00N 48°34' W 122°53'5 9.7
2018-Apr-15 01:30N 48°33' W 122°60'1 1.8
2018-Apr-15 01:00N 48°32' W 123°01'4 8.3
2018-Apr-15 00:31N 48°33' W 122°55'3 6.5
2018-Apr-15 00:00N 48°33' W 122°50'713.2
2018-Apr-14 23:30N 48°31' W 122°41'0 0.1
2018-Apr-14 22:55N 48°30' W 122°41'0 0.0
2018-Apr-14 22:30N 48°30' W 122°41'0 0.0
2018-Apr-14 22:00N 48°30' W 122°41'0 0.0
2018-Apr-14 21:29N 48°30' W 122°41'0 0.0
2018-Apr-14 21:00N 48°30' W 122°41'0 0.9
2018-Apr-14 20:30N 48°31' W 122°40'713.8
2018-Apr-14 20:00N 48°33' W 122°50'5 9.7
2018-Apr-14 19:31N 48°36' W 122°56'0 0.8
2018-Apr-14 19:00N 48°36' W 122°57'3 5.7
2018-Apr-14 18:30N 48°34' W 122°53'5 9.7
2018-Apr-14 18:00N 48°32' W 122°47'4 5.6
2018-Apr-14 17:15N 48°30' W 122°41'2 9.4
2018-Apr-14 17:00N 48°31' W 122°44'713.5
2018-Apr-14 16:30N 48°34' W 122°53'2 4.2
2018-Apr-14 16:00N 48°35' W 122°56'1 1.7
2018-Apr-14 15:30N 48°36' W 122°57'611.2
2018-Apr-14 15:00N 48°33' W 122°50'612.2
2018-Apr-14 14:29N 48°30' W 122°41'2 4.9
2018-Apr-14 14:01N 48°31' W 122°44'713.3
2018-Apr-14 13:30N 48°34' W 122°53'3 5.1
2018-Apr-14 13:00N 48°33' W 122°56'3 6.7
2018-Apr-14 12:31N 48°32' W 123°01'5 9.9
2018-Apr-14 12:00N 48°34' W 122°54'713.0
2018-Apr-14 11:30N 48°32' W 122°45'3 5.8
2018-Apr-14 10:59N 48°30' W 122°41'  

Dump ship's entire track history